sensor_id;sensor_type;location;lat;lon;timestamp;pressure;altitude;pressure_sealevel;temperature;humidity
23619;BME280;18207;32.078;34.818;2022-11-04T00:01:18;101132.06;;;27.81;43.02
23619;BME280;18207;32.078;34.818;2022-11-04T00:03:49;101140.19;;;27.82;43.12
23619;BME280;18207;32.078;34.818;2022-11-04T00:06:20;101126.06;;;27.82;43.09
23619;BME280;18207;32.078;34.818;2022-11-04T00:08:54;101138.16;;;27.83;42.94
23619;BME280;18207;32.078;34.818;2022-11-04T00:11:26;101134.16;;;27.84;43.21
23619;BME280;18207;32.078;34.818;2022-11-04T00:14:15;101132.91;;;27.81;42.76
23619;BME280;18207;32.078;34.818;2022-11-04T00:16:46;101128.44;;;27.80;42.99
23619;BME280;18207;32.078;34.818;2022-11-04T00:19:33;101134.47;;;27.79;42.97
23619;BME280;18207;32.078;34.818;2022-11-04T00:22:16;101128.38;;;27.77;42.96
23619;BME280;18207;32.078;34.818;2022-11-04T00:25:12;101125.91;;;27.75;42.92
23619;BME280;18207;32.078;34.818;2022-11-04T00:28:05;101133.97;;;27.74;42.94
23619;BME280;18207;32.078;34.818;2022-11-04T00:30:55;101125.84;;;27.72;43.16
23619;BME280;18207;32.078;34.818;2022-11-04T00:33:26;101126.66;;;27.73;43.28
23619;BME280;18207;32.078;34.818;2022-11-04T00:35:56;101124.66;;;27.73;43.25
23619;BME280;18207;32.078;34.818;2022-11-04T00:38:26;101116.19;;;27.73;43.07
23619;BME280;18207;32.078;34.818;2022-11-04T00:40:59;101120.19;;;27.72;43.28
23619;BME280;18207;32.078;34.818;2022-11-04T00:43:29;101116.13;;;27.70;43.35
23619;BME280;18207;32.078;34.818;2022-11-04T00:45:59;101121.75;;;27.70;43.03
23619;BME280;18207;32.078;34.818;2022-11-04T00:48:30;101115.31;;;27.69;43.13
23619;BME280;18207;32.078;34.818;2022-11-04T00:51:00;101115.31;;;27.69;43.28
23619;BME280;18207;32.078;34.818;2022-11-04T00:53:31;101112.47;;;27.69;43.27
23619;BME280;18207;32.078;34.818;2022-11-04T00:56:04;101110.84;;;27.68;43.16
23619;BME280;18207;32.078;34.818;2022-11-04T00:58:34;101108.81;;;27.69;43.36
23619;BME280;18207;32.078;34.818;2022-11-04T01:01:08;101114.47;;;27.69;43.47
23619;BME280;18207;32.078;34.818;2022-11-04T01:03:40;101107.19;;;27.68;43.12
23619;BME280;18207;32.078;34.818;2022-11-04T01:06:10;101107.19;;;27.68;43.15
23619;BME280;18207;32.078;34.818;2022-11-04T01:08:41;101113.22;;;27.66;43.48
23619;BME280;18207;32.078;34.818;2022-11-04T01:11:15;101104.75;;;27.66;43.16
23619;BME280;18207;32.078;34.818;2022-11-04T01:13:45;101104.75;;;27.66;43.30
23619;BME280;18207;32.078;34.818;2022-11-04T01:16:18;101100.28;;;27.65;43.31
23619;BME280;18207;32.078;34.818;2022-11-04T01:18:50;101115.25;;;27.66;43.25
23619;BME280;18207;32.078;34.818;2022-11-04T01:21:20;101112.78;;;27.64;43.41
23619;BME280;18207;32.078;34.818;2022-11-04T01:23:50;101105.50;;;27.63;43.41
23619;BME280;18207;32.078;34.818;2022-11-04T01:26:26;101104.69;;;27.63;43.14
23619;BME280;18207;32.078;34.818;2022-11-04T01:28:58;101111.50;;;27.62;43.57
23619;BME280;18207;32.078;34.818;2022-11-04T01:31:31;101105.41;;;27.60;43.38
23619;BME280;18207;32.078;34.818;2022-11-04T01:34:01;101104.94;;;27.58;43.33
23619;BME280;18207;32.078;34.818;2022-11-04T01:36:32;101113.00;;;27.56;43.34
23619;BME280;18207;32.078;34.818;2022-11-04T01:39:03;101108.53;;;27.55;43.37
23619;BME280;18207;32.078;34.818;2022-11-04T01:41:36;101104.88;;;27.54;43.17
23619;BME280;18207;32.078;34.818;2022-11-04T01:44:45;101102.81;;;27.51;43.26
23619;BME280;18207;32.078;34.818;2022-11-04T01:47:19;101109.66;;;27.50;43.40
23619;BME280;18207;32.078;34.818;2022-11-04T01:49:57;101099.91;;;27.48;43.20
23619;BME280;18207;32.078;34.818;2022-11-04T01:52:33;101102.75;;;27.48;43.45
23619;BME280;18207;32.078;34.818;2022-11-04T01:55:13;101099.50;;;27.46;43.46
23619;BME280;18207;32.078;34.818;2022-11-04T01:57:50;101093.34;;;27.40;43.47
23619;BME280;18207;32.078;34.818;2022-11-04T02:00:23;101099.72;;;27.37;43.34
23619;BME280;18207;32.078;34.818;2022-11-04T02:02:59;101094.81;;;27.34;43.31
23619;BME280;18207;32.078;34.818;2022-11-04T02:05:32;101093.56;;;27.32;43.65
23619;BME280;18207;32.078;34.818;2022-11-04T02:08:05;101096.38;;;27.32;43.41
23619;BME280;18207;32.078;34.818;2022-11-04T02:10:39;101095.56;;;27.31;43.71
23619;BME280;18207;32.078;34.818;2022-11-04T02:13:14;101106.03;;;27.31;43.56
23619;BME280;18207;32.078;34.818;2022-11-04T02:15:53;101103.22;;;27.31;43.54
23619;BME280;18207;32.078;34.818;2022-11-04T02:18:42;101099.13;;;27.28;43.39
23619;BME280;18207;32.078;34.818;2022-11-04T02:22:05;101102.69;;;27.25;43.35
23619;BME280;18207;32.078;34.818;2022-11-04T02:25:04;101086.50;;;27.22;43.35
23619;BME280;18207;32.078;34.818;2022-11-04T02:28:04;101099.00;;;27.21;43.47
23619;BME280;18207;32.078;34.818;2022-11-04T02:30:51;101104.19;;;27.19;43.31
23619;BME280;18207;32.078;34.818;2022-11-04T02:33:26;101105.38;;;27.18;43.69
23619;BME280;18207;32.078;34.818;2022-11-04T02:36:04;101107.38;;;27.18;43.92
23619;BME280;18207;32.078;34.818;2022-11-04T02:38:55;101103.28;;;27.15;43.57
23619;BME280;18207;32.078;34.818;2022-11-04T02:41:37;101112.94;;;27.14;43.44
23619;BME280;18207;32.078;34.818;2022-11-04T02:44:18;101116.94;;;27.13;43.51
23619;BME280;18207;32.078;34.818;2022-11-04T02:46:56;101116.94;;;27.13;43.68
23619;BME280;18207;32.078;34.818;2022-11-04T02:49:33;101118.13;;;27.12;43.52
23619;BME280;18207;32.078;34.818;2022-11-04T02:52:09;101122.97;;;27.12;43.69
23619;BME280;18207;32.078;34.818;2022-11-04T02:54:46;101123.34;;;27.10;43.57
23619;BME280;18207;32.078;34.818;2022-11-04T02:57:22;101126.53;;;27.09;43.50
23619;BME280;18207;32.078;34.818;2022-11-04T03:00:00;101130.13;;;27.06;43.66
23619;BME280;18207;32.078;34.818;2022-11-04T03:02:39;101128.81;;;27.03;43.59
23619;BME280;18207;32.078;34.818;2022-11-04T03:05:15;101132.38;;;27.00;43.70
23619;BME280;18207;32.078;34.818;2022-11-04T03:07:51;101139.19;;;26.99;43.77
23619;BME280;18207;32.078;34.818;2022-11-04T03:10:27;101135.13;;;26.97;43.67
23619;BME280;18207;32.078;34.818;2022-11-04T03:13:09;101129.38;;;26.93;43.74
23619;BME280;18207;32.078;34.818;2022-11-04T03:15:48;101130.56;;;26.92;43.62
23619;BME280;18207;32.078;34.818;2022-11-04T03:18:32;101133.75;;;26.91;43.60
23619;BME280;18207;32.078;34.818;2022-11-04T03:21:09;101131.66;;;26.88;43.64
23619;BME280;18207;32.078;34.818;2022-11-04T03:23:41;101138.53;;;26.87;43.83
23619;BME280;18207;32.078;34.818;2022-11-04T03:26:22;101142.16;;;26.87;43.70
23619;BME280;18207;32.078;34.818;2022-11-04T03:29:13;101135.72;;;26.87;43.75
23619;BME280;18207;32.078;34.818;2022-11-04T03:32:00;101138.53;;;26.87;43.81
23619;BME280;18207;32.078;34.818;2022-11-04T03:34:37;101142.53;;;26.86;43.76
23619;BME280;18207;32.078;34.818;2022-11-04T03:37:08;101139.72;;;26.86;43.50
23619;BME280;18207;32.078;34.818;2022-11-04T03:39:39;101145.34;;;26.86;43.46
23619;BME280;18207;32.078;34.818;2022-11-04T03:42:13;101145.34;;;26.86;43.87
23619;BME280;18207;32.078;34.818;2022-11-04T03:44:52;101143.72;;;26.85;43.63
23619;BME280;18207;32.078;34.818;2022-11-04T03:47:26;101146.53;;;26.85;43.67
23619;BME280;18207;32.078;34.818;2022-11-04T03:50:07;101146.06;;;26.83;43.39
23619;BME280;18207;32.078;34.818;2022-11-04T03:52:39;101141.63;;;26.82;43.65
23619;BME280;18207;32.078;34.818;2022-11-04T03:55:13;101147.63;;;26.81;43.53
23619;BME280;18207;32.078;34.818;2022-11-04T03:57:52;101147.19;;;26.79;43.92
23619;BME280;18207;32.078;34.818;2022-11-04T04:00:32;101145.53;;;26.78;43.67
23619;BME280;18207;32.078;34.818;2022-11-04T04:03:11;101148.75;;;26.76;43.73
23619;BME280;18207;32.078;34.818;2022-11-04T04:05:51;101155.19;;;26.77;43.70
23619;BME280;18207;32.078;34.818;2022-11-04T04:08:33;101156.38;;;26.76;43.81
23619;BME280;18207;32.078;34.818;2022-11-04T04:11:12;101159.19;;;26.76;44.04
23619;BME280;18207;32.078;34.818;2022-11-04T04:13:54;101156.75;;;26.74;43.79
23619;BME280;18207;32.078;34.818;2022-11-04T04:16:32;101159.56;;;26.74;43.98
23619;BME280;18207;32.078;34.818;2022-11-04T04:19:07;101155.56;;;26.75;43.65
23619;BME280;18207;32.078;34.818;2022-11-04T04:21:45;101160.38;;;26.75;43.82
23619;BME280;18207;32.078;34.818;2022-11-04T04:24:22;101162.00;;;26.76;43.97
23619;BME280;18207;32.078;34.818;2022-11-04T04:27:12;101159.56;;;26.74;43.84
23619;BME280;18207;32.078;34.818;2022-11-04T04:30:05;101160.75;;;26.73;43.88
23619;BME280;18207;32.078;34.818;2022-11-04T04:32:41;101163.56;;;26.73;43.84
23619;BME280;18207;32.078;34.818;2022-11-04T04:35:13;101168.03;;;26.74;43.98
23619;BME280;18207;32.078;34.818;2022-11-04T04:38:07;101166.84;;;26.75;43.99
23619;BME280;18207;32.078;34.818;2022-11-04T04:41:05;101158.84;;;26.77;44.19
23619;BME280;18207;32.078;34.818;2022-11-04T04:44:15;101168.56;;;26.80;44.07
23619;BME280;18207;32.078;34.818;2022-11-04T04:47:07;101174.28;;;26.83;43.99
23619;BME280;18207;32.078;34.818;2022-11-04T04:49:49;101173.25;;;26.91;44.35
23619;BME280;18207;32.078;34.818;2022-11-04T04:52:21;101174.34;;;27.02;44.38
23619;BME280;18207;32.078;34.818;2022-11-04T04:54:55;101175.03;;;27.14;44.61
23619;BME280;18207;32.078;34.818;2022-11-04T04:57:25;101177.34;;;27.28;44.62
23619;BME280;18207;32.078;34.818;2022-11-04T04:59:56;101185.38;;;27.45;44.80
23619;BME280;18207;32.078;34.818;2022-11-04T05:02:28;101185.31;;;27.60;45.01
23619;BME280;18207;32.078;34.818;2022-11-04T05:04:58;101190.06;;;27.75;45.12
23619;BME280;18207;32.078;34.818;2022-11-04T05:07:42;101193.25;;;27.92;44.98
23619;BME280;18207;32.078;34.818;2022-11-04T05:10:16;101185.06;;;28.10;44.91
23619;BME280;18207;32.078;34.818;2022-11-04T05:12:47;101195.09;;;28.26;45.36
23619;BME280;18207;32.078;34.818;2022-11-04T05:15:34;101208.38;;;28.45;45.15
23619;BME280;18207;32.078;34.818;2022-11-04T05:18:05;101201.75;;;28.60;45.03
23619;BME280;18207;32.078;34.818;2022-11-04T05:20:36;101200.84;;;28.78;45.33
23619;BME280;18207;32.078;34.818;2022-11-04T05:23:08;101203.53;;;28.93;45.29
23619;BME280;18207;32.078;34.818;2022-11-04T05:25:41;101211.47;;;29.10;45.11
23619;BME280;18207;32.078;34.818;2022-11-04T05:28:11;101208.84;;;29.24;44.94
23619;BME280;18207;32.078;34.818;2022-11-04T05:30:43;101206.66;;;29.40;44.89
23619;BME280;18207;32.078;34.818;2022-11-04T05:33:14;101209.31;;;29.55;45.05
23619;BME280;18207;32.078;34.818;2022-11-04T05:35:44;101216.78;;;29.70;44.97
23619;BME280;18207;32.078;34.818;2022-11-04T05:38:14;101216.94;;;29.84;44.85
23619;BME280;18207;32.078;34.818;2022-11-04T05:40:46;101222.41;;;30.00;44.72
23619;BME280;18207;32.078;34.818;2022-11-04T05:43:17;101213.25;;;30.13;44.62
23619;BME280;18207;32.078;34.818;2022-11-04T05:45:48;101219.44;;;30.26;45.24
23619;BME280;18207;32.078;34.818;2022-11-04T05:48:18;101227.31;;;30.39;44.61
23619;BME280;18207;32.078;34.818;2022-11-04T05:50:50;101225.44;;;30.53;44.45
23619;BME280;18207;32.078;34.818;2022-11-04T05:53:21;101229.59;;;30.66;45.06
23619;BME280;18207;32.078;34.818;2022-11-04T05:55:53;101221.19;;;30.80;44.83
23619;BME280;18207;32.078;34.818;2022-11-04T05:58:24;101229.00;;;30.94;44.35
23619;BME280;18207;32.078;34.818;2022-11-04T06:01:10;101225.91;;;31.09;44.04
23619;BME280;18207;32.078;34.818;2022-11-04T06:03:41;101234.47;;;31.20;44.22
23619;BME280;18207;32.078;34.818;2022-11-04T06:06:12;101230.50;;;31.31;44.21
23619;BME280;18207;32.078;34.818;2022-11-04T06:08:43;101235.03;;;31.42;44.00
23619;BME280;18207;32.078;34.818;2022-11-04T06:11:18;101237.50;;;31.51;43.47
23619;BME280;18207;32.078;34.818;2022-11-04T06:13:49;101234.31;;;31.59;43.71
23619;BME280;18207;32.078;34.818;2022-11-04T06:16:20;101240.06;;;31.66;43.20
23619;BME280;18207;32.078;34.818;2022-11-04T06:18:51;101236.81;;;31.75;43.09
23619;BME280;18207;32.078;34.818;2022-11-04T06:21:32;101236.88;;;31.85;43.27
23619;BME280;18207;32.078;34.818;2022-11-04T06:24:07;101234.91;;;31.96;43.26
23619;BME280;18207;32.078;34.818;2022-11-04T06:26:41;101234.09;;;32.06;43.18
23619;BME280;18207;32.078;34.818;2022-11-04T06:29:11;101237.78;;;32.17;43.19
23619;BME280;18207;32.078;34.818;2022-11-04T06:31:42;101238.25;;;32.29;42.94
23619;BME280;18207;32.078;34.818;2022-11-04T06:34:13;101238.25;;;32.40;43.51
23619;BME280;18207;32.078;34.818;2022-11-04T06:36:43;101238.25;;;32.50;43.50
23619;BME280;18207;32.078;34.818;2022-11-04T06:39:13;101239.94;;;32.58;43.09
23619;BME280;18207;32.078;34.818;2022-11-04T06:41:46;101243.59;;;32.66;42.82
23619;BME280;18207;32.078;34.818;2022-11-04T06:44:18;101239.13;;;32.72;42.83
23619;BME280;18207;32.078;34.818;2022-11-04T06:46:50;101244.41;;;32.77;42.66
23619;BME280;18207;32.078;34.818;2022-11-04T06:49:21;101246.03;;;32.81;42.37
23619;BME280;18207;32.078;34.818;2022-11-04T06:52:01;101247.25;;;32.87;42.82
23619;BME280;18207;32.078;34.818;2022-11-04T06:54:32;101251.72;;;32.95;42.76
23619;BME280;18207;32.078;34.818;2022-11-04T06:57:04;101250.50;;;33.00;42.05
23619;BME280;18207;32.078;34.818;2022-11-04T06:59:35;101252.94;;;33.05;42.22
23619;BME280;18207;32.078;34.818;2022-11-04T07:02:06;101254.97;;;33.08;41.60
23619;BME280;18207;32.078;34.818;2022-11-04T07:04:37;101258.25;;;33.10;41.42
23619;BME280;18207;32.078;34.818;2022-11-04T07:07:08;101258.66;;;33.15;41.57
23619;BME280;18207;32.078;34.818;2022-11-04T07:09:40;101258.63;;;33.22;41.53
23619;BME280;18207;32.078;34.818;2022-11-04T07:12:12;101261.06;;;33.30;41.46
23619;BME280;18207;32.078;34.818;2022-11-04T07:14:44;101254.94;;;33.35;41.21
23619;BME280;18207;32.078;34.818;2022-11-04T07:17:15;101258.59;;;33.43;41.75
23619;BME280;18207;32.078;34.818;2022-11-04T07:19:46;101253.28;;;33.52;41.67
23619;BME280;18207;32.078;34.818;2022-11-04T07:22:16;101249.59;;;33.58;41.71
23619;BME280;18207;32.078;34.818;2022-11-04T07:24:47;101255.31;;;33.62;41.52
23619;BME280;18207;32.078;34.818;2022-11-04T07:27:19;101250.81;;;33.68;41.50
23619;BME280;18207;32.078;34.818;2022-11-04T07:29:50;101244.69;;;33.73;41.17
23619;BME280;18207;32.078;34.818;2022-11-04T07:32:20;101243.84;;;33.76;40.46
23619;BME280;18207;32.078;34.818;2022-11-04T07:34:52;101246.25;;;33.81;40.70
23619;BME280;18207;32.078;34.818;2022-11-04T07:37:23;101248.72;;;33.86;40.51
23619;BME280;18207;32.078;34.818;2022-11-04T07:39:54;101239.31;;;33.92;41.12
23619;BME280;18207;32.078;34.818;2022-11-04T07:42:26;101239.25;;;33.99;40.93
23619;BME280;18207;32.078;34.818;2022-11-04T07:44:56;101235.56;;;34.05;40.47
23619;BME280;18207;32.078;34.818;2022-11-04T07:47:29;101241.66;;;34.14;40.60
23619;BME280;18207;32.078;34.818;2022-11-04T07:50:00;101240.38;;;34.22;40.69
23619;BME280;18207;32.078;34.818;2022-11-04T07:52:38;101233.81;;;34.29;40.10
23619;BME280;18207;32.078;34.818;2022-11-04T07:55:09;101230.50;;;34.34;40.38
23619;BME280;18207;32.078;34.818;2022-11-04T07:57:43;101225.16;;;34.39;40.30
23619;BME280;18207;32.078;34.818;2022-11-04T08:00:15;101230.00;;;34.46;40.20
23619;BME280;18207;32.078;34.818;2022-11-04T08:02:47;101229.59;;;34.51;39.55
23619;BME280;18207;32.078;34.818;2022-11-04T08:05:17;101224.25;;;34.56;39.83
23619;BME280;18207;32.078;34.818;2022-11-04T08:07:48;101218.53;;;34.56;39.29
23619;BME280;18207;32.078;34.818;2022-11-04T08:10:19;101222.22;;;34.57;39.82
23619;BME280;18207;32.078;34.818;2022-11-04T08:12:51;101216.91;;;34.59;39.88
23619;BME280;18207;32.078;34.818;2022-11-04T08:15:23;101221.75;;;34.62;39.12
23619;BME280;18207;32.078;34.818;2022-11-04T08:17:53;101218.06;;;34.65;39.83
23619;BME280;18207;32.078;34.818;2022-11-04T08:20:24;101206.19;;;34.66;39.15
23619;BME280;18207;32.078;34.818;2022-11-04T08:22:54;101209.06;;;34.66;39.36
23619;BME280;18207;32.078;34.818;2022-11-04T08:25:24;101207.47;;;34.65;38.41
23619;BME280;18207;32.078;34.818;2022-11-04T08:27:56;101204.22;;;34.63;38.90
23619;BME280;18207;32.078;34.818;2022-11-04T08:30:28;101201.78;;;34.58;38.13
23619;BME280;18207;32.078;34.818;2022-11-04T08:32:58;101199.78;;;34.52;38.41
23619;BME280;18207;32.078;34.818;2022-11-04T08:35:29;101206.34;;;34.49;38.33
23619;BME280;18207;32.078;34.818;2022-11-04T08:38:06;101201.91;;;34.41;38.33
23619;BME280;18207;32.078;34.818;2022-11-04T08:40:37;101199.09;;;34.34;38.22
23619;BME280;18207;32.078;34.818;2022-11-04T08:43:09;101185.28;;;34.29;37.99
23619;BME280;18207;32.078;34.818;2022-11-04T08:45:42;101181.63;;;34.25;37.47
23619;BME280;18207;32.078;34.818;2022-11-04T08:48:13;101186.94;;;34.23;37.61
23619;BME280;18207;32.078;34.818;2022-11-04T08:50:49;101180.88;;;34.21;37.33
23619;BME280;18207;32.078;34.818;2022-11-04T08:53:20;101176.78;;;34.18;37.64
23619;BME280;18207;32.078;34.818;2022-11-04T08:55:51;101180.06;;;34.17;37.38
23619;BME280;18207;32.078;34.818;2022-11-04T08:58:26;101177.66;;;34.08;37.88
23619;BME280;18207;32.078;34.818;2022-11-04T09:01:03;101160.13;;;34.03;37.55
23619;BME280;18207;32.078;34.818;2022-11-04T09:03:35;101167.13;;;33.95;37.81
23619;BME280;18207;32.078;34.818;2022-11-04T09:06:08;101151.25;;;33.91;37.34
23619;BME280;18207;32.078;34.818;2022-11-04T09:08:39;101155.78;;;33.88;37.57
23619;BME280;18207;32.078;34.818;2022-11-04T09:11:13;101147.22;;;33.88;37.93
23619;BME280;18207;32.078;34.818;2022-11-04T09:13:46;101146.38;;;33.88;38.03
23619;BME280;18207;32.078;34.818;2022-11-04T09:16:17;101137.44;;;33.86;37.43
23619;BME280;18207;32.078;34.818;2022-11-04T09:18:47;101149.28;;;33.81;37.97
23619;BME280;18207;32.078;34.818;2022-11-04T09:21:17;101145.25;;;33.75;37.39
23619;BME280;18207;32.078;34.818;2022-11-04T09:23:47;101133.88;;;33.71;37.98
23619;BME280;18207;32.078;34.818;2022-11-04T09:26:18;101140.41;;;33.68;37.50
23619;BME280;18207;32.078;34.818;2022-11-04T09:28:55;101137.59;;;33.61;37.46
23619;BME280;18207;32.078;34.818;2022-11-04T09:31:29;101128.22;;;33.54;37.82
23619;BME280;18207;32.078;34.818;2022-11-04T09:33:59;101127.44;;;33.46;37.91
23619;BME280;18207;32.078;34.818;2022-11-04T09:36:30;101126.66;;;33.39;37.85
23619;BME280;18207;32.078;34.818;2022-11-04T09:39:00;101116.13;;;33.32;37.84
23619;BME280;18207;32.078;34.818;2022-11-04T09:41:50;101118.59;;;33.27;37.46
23619;BME280;18207;32.078;34.818;2022-11-04T09:44:32;101119.44;;;33.17;37.38
23619;BME280;18207;32.078;34.818;2022-11-04T09:47:31;101111.28;;;33.09;37.76
23619;BME280;18207;32.078;34.818;2022-11-04T09:50:07;101103.56;;;33.06;37.53
23619;BME280;18207;32.078;34.818;2022-11-04T09:52:53;101104.78;;;33.05;38.07
23619;BME280;18207;32.078;34.818;2022-11-04T09:55:32;101104.41;;;33.03;37.33
23619;BME280;18207;32.078;34.818;2022-11-04T09:58:08;101098.72;;;32.96;37.55
23619;BME280;18207;32.078;34.818;2022-11-04T10:00:56;101096.72;;;32.89;37.61
23619;BME280;18207;32.078;34.818;2022-11-04T10:03:46;101091.03;;;32.82;37.47
23619;BME280;18207;32.078;34.818;2022-11-04T10:06:34;101095.53;;;32.73;37.41
23619;BME280;18207;32.078;34.818;2022-11-04T10:09:20;101091.47;;;32.63;37.69
23619;BME280;18207;32.078;34.818;2022-11-04T10:12:06;101076.81;;;32.54;37.51
23619;BME280;18207;32.078;34.818;2022-11-04T10:15:18;101067.47;;;32.47;38.15
23619;BME280;18207;32.078;34.818;2022-11-04T10:21:26;101068.72;;;32.35;37.72
23619;BME280;18207;32.078;34.818;2022-11-04T10:24:22;101057.34;;;32.32;38.06
23619;BME280;18207;32.078;34.818;2022-11-04T10:26:57;101055.31;;;32.29;37.81
23619;BME280;18207;32.078;34.818;2022-11-04T10:29:36;101053.28;;;32.26;37.74
23619;BME280;18207;32.078;34.818;2022-11-04T10:32:17;101048.41;;;32.23;37.96
23619;BME280;18207;32.078;34.818;2022-11-04T10:34:56;101050.03;;;32.17;37.50
23619;BME280;18207;32.078;34.818;2022-11-04T10:37:30;101041.94;;;32.12;37.46
23619;BME280;18207;32.078;34.818;2022-11-04T10:40:16;101043.13;;;32.11;37.59
23619;BME280;18207;32.078;34.818;2022-11-04T10:42:50;101040.31;;;32.08;38.17
23619;BME280;18207;32.078;34.818;2022-11-04T10:45:45;101034.59;;;32.04;37.82
23619;BME280;18207;32.078;34.818;2022-11-04T10:48:26;101035.81;;;31.96;37.76
23619;BME280;18207;32.078;34.818;2022-11-04T10:50:59;101029.31;;;31.89;38.08
23619;BME280;18207;32.078;34.818;2022-11-04T10:53:33;101029.31;;;31.82;37.79
23619;BME280;18207;32.078;34.818;2022-11-04T10:56:14;101027.28;;;31.75;37.88
23619;BME280;18207;32.078;34.818;2022-11-04T10:58:47;101032.13;;;31.71;38.36
23619;BME280;18207;32.078;34.818;2022-11-04T11:01:28;101022.78;;;31.67;38.32
23619;BME280;18207;32.078;34.818;2022-11-04T11:04:00;101023.19;;;31.62;38.03
23619;BME280;18207;32.078;34.818;2022-11-04T11:06:33;101019.94;;;31.57;38.21
23619;BME280;18207;32.078;34.818;2022-11-04T11:09:21;101020.69;;;31.50;38.37
23619;BME280;18207;32.078;34.818;2022-11-04T11:11:59;101010.53;;;31.46;38.38
23619;BME280;18207;32.078;34.818;2022-11-04T11:14:44;101013.38;;;31.42;38.38
23619;BME280;18207;32.078;34.818;2022-11-04T11:17:22;101011.75;;;31.38;38.36
23619;BME280;18207;32.078;34.818;2022-11-04T11:20:19;101006.44;;;31.33;37.82
23619;BME280;18207;32.078;34.818;2022-11-04T11:22:51;101003.59;;;31.30;38.54
23619;BME280;18207;32.078;34.818;2022-11-04T11:25:34;101004.44;;;31.27;38.08
23619;BME280;18207;32.078;34.818;2022-11-04T11:28:12;100997.50;;;31.24;38.47
23619;BME280;18207;32.078;34.818;2022-11-04T11:30:57;100993.44;;;31.22;38.17
23619;BME280;18207;32.078;34.818;2022-11-04T11:33:33;100991.03;;;31.20;38.07
23619;BME280;18207;32.078;34.818;2022-11-04T11:36:13;101006.44;;;31.19;38.38
23619;BME280;18207;32.078;34.818;2022-11-04T11:38:58;100993.03;;;31.13;38.60
23619;BME280;18207;32.078;34.818;2022-11-04T11:41:52;100999.09;;;31.08;38.60
23619;BME280;18207;32.078;34.818;2022-11-04T11:44:29;100999.06;;;31.04;38.77
23619;BME280;18207;32.078;34.818;2022-11-04T11:47:05;100990.94;;;30.99;38.29
23619;BME280;18207;32.078;34.818;2022-11-04T11:49:37;100997.81;;;30.95;38.43
23619;BME280;18207;32.078;34.818;2022-11-04T11:52:30;100991.28;;;30.91;38.78
23619;BME280;18207;32.078;34.818;2022-11-04T11:55:11;100993.31;;;30.90;38.17
23619;BME280;18207;32.078;34.818;2022-11-04T11:57:58;100991.69;;;30.89;38.45
23619;BME280;18207;32.078;34.818;2022-11-04T12:00:58;100994.53;;;30.86;38.98
23619;BME280;18207;32.078;34.818;2022-11-04T12:03:44;100982.75;;;30.84;38.82
23619;BME280;18207;32.078;34.818;2022-11-04T12:06:45;100988.41;;;30.80;38.73
23619;BME280;18207;32.078;34.818;2022-11-04T12:09:45;100985.16;;;30.71;38.38
23619;BME280;18207;32.078;34.818;2022-11-04T12:12:41;100982.28;;;30.68;38.75
23619;BME280;18207;32.078;34.818;2022-11-04T12:15:37;100986.75;;;30.69;38.36
23619;BME280;18207;32.078;34.818;2022-11-04T12:21:28;100994.03;;;30.66;39.09
23619;BME280;18207;32.078;34.818;2022-11-04T12:24:13;100989.53;;;30.62;38.96
23619;BME280;18207;32.078;34.818;2022-11-04T12:26:56;100989.53;;;30.55;38.45
23619;BME280;18207;32.078;34.818;2022-11-04T12:29:48;100990.28;;;30.48;39.10
23619;BME280;18207;32.078;34.818;2022-11-04T12:32:31;100991.44;;;30.44;38.56
23619;BME280;18207;32.078;34.818;2022-11-04T12:35:24;100989.81;;;30.43;38.89
23619;BME280;18207;32.078;34.818;2022-11-04T12:38:16;100985.34;;;30.42;38.53
23619;BME280;18207;32.078;34.818;2022-11-04T12:41:01;100987.41;;;30.42;38.96
23619;BME280;18207;32.078;34.818;2022-11-04T12:44:03;100991.84;;;30.39;38.53
23619;BME280;18207;32.078;34.818;2022-11-04T12:46:46;100984.13;;;30.36;38.64
23619;BME280;18207;32.078;34.818;2022-11-04T12:49:52;100989.75;;;30.29;38.48
23619;BME280;18207;32.078;34.818;2022-11-04T12:53:11;100989.31;;;30.24;39.06
23619;BME280;18207;32.078;34.818;2022-11-04T12:55:55;100997.00;;;30.23;39.09
23619;BME280;18207;32.078;34.818;2022-11-04T12:58:46;100992.94;;;30.24;38.95
23619;BME280;18207;32.078;34.818;2022-11-04T13:01:36;100995.00;;;30.24;38.85
23619;BME280;18207;32.078;34.818;2022-11-04T13:04:13;100990.53;;;30.23;39.10
23619;BME280;18207;32.078;34.818;2022-11-04T13:06:51;100994.16;;;30.23;38.36
23619;BME280;18207;32.078;34.818;2022-11-04T13:09:33;100990.53;;;30.23;38.69
23619;BME280;18207;32.078;34.818;2022-11-04T13:12:10;100997.81;;;30.20;38.86
23619;BME280;18207;32.078;34.818;2022-11-04T13:14:47;100989.66;;;30.19;38.48
23619;BME280;18207;32.078;34.818;2022-11-04T13:17:27;100996.94;;;30.16;38.51
23619;BME280;18207;32.078;34.818;2022-11-04T13:20:02;101007.88;;;30.14;38.87
23619;BME280;18207;32.078;34.818;2022-11-04T13:22:37;101000.13;;;30.08;38.29
23619;BME280;18207;32.078;34.818;2022-11-04T13:25:15;101006.97;;;30.03;38.78
23619;BME280;18207;32.078;34.818;2022-11-04T13:27:47;101013.47;;;30.04;38.48
23619;BME280;18207;32.078;34.818;2022-11-04T13:30:26;101015.88;;;30.02;38.87
23619;BME280;18207;32.078;34.818;2022-11-04T13:33:07;101010.19;;;29.98;38.45
23619;BME280;18207;32.078;34.818;2022-11-04T13:35:52;101017.38;;;29.92;38.85
23619;BME280;18207;32.078;34.818;2022-11-04T13:38:32;101012.53;;;29.89;38.49
23619;BME280;18207;32.078;34.818;2022-11-04T13:41:42;101001.16;;;29.86;38.89